帯広空港の過去48時間の天気

帯広空港 (Obihiro)

現在時刻: 7/23 03:26 JST (7/22 18:26 UTC) 以下の時間は現地時間です。

過去48時間のMETAR気象情報
時間 風向 風速(m/s) 視程 気温(℃) 湿度(%) 気圧(hPa) 天気現象
22 20:00 不定 1 10km以上 19 88 1006
22 19:00 南南東 2 10km以上 20 88 1005
22 18:00 4 10km以上 20 88 1004
22 17:00 4 10km以上 21 88 1003
22 16:00 4 10km以上 22 83 1003
22 15:00 北北西 4 10km以上 26 58 1002
22 14:00 北北西 4 10km以上 27 66 1002
22 13:00 北北西 4 10km以上 27 66 1002
22 12:00 北北西 5 10km以上 27 70 1003
22 11:00 北北西 3 10km以上 26 74 1003
22 10:00 北北東 3 10km以上 25 78 1003
22 09:00 北北東 2 10km以上 25 78 1003
22 08:00 不定 1 10km以上 25 78 1003
22 07:40 不定 1 10km以上 25 78 1003
21 20:00 不定 1 10km以上 26 79 1004
21 19:00 不定 1 10km以上 27 70 1003
21 18:00 東南東 2 10km以上 28 70 1003
21 17:00 不定 1 10km以上 28 70 1003
21 16:00 3 10km以上 29 66 1003
21 15:00 北北西 2 10km以上 30 62 1003
21 14:00 南東 2 10km以上 29 70 1003
21 13:00 2 10km以上 29 66 1004
21 12:00 不定 1 10km以上 28 70 1005
21 11:00 北北東 3 10km以上 27 74 1005
21 10:00 南南東 2 10km以上 26 79 1005
21 09:00 不定 1 10km以上 26 74 1006
21 08:00 不定 1 10km以上 24 83 1006
21 07:40 不定 1 10km以上 23 89 1006
RJCB 221100Z VRB02KT 9999 FEW010 SCT025 BKN/// 19/17 Q1006
RJCB 221000Z 15004KT 9999 FEW015 BKN/// 20/18 Q1005
RJCB 220900Z 17007KT 140V200 9999 FEW015 BKN/// 20/18 Q1004
RJCB 220800Z 17007KT 140V200 9999 FEW015 BKN/// 21/19 Q1003
RJCB 220700Z 17007KT 140V210 9999 FEW015 BKN/// 22/19 Q1003
RJCB 220600Z 33008KT 290V360 9999 FEW030 SCT/// 26/17 Q1002
RJCB 220500Z 33007KT 260V360 9999 FEW030 BKN/// 27/20 Q1002
RJCB 220400Z 33008KT 280V360 9999 FEW030 BKN/// 27/20 Q1002
RJCB 220300Z 34009KT 9999 FEW020 BKN/// 27/21 Q1003
RJCB 220200Z 33006KT 250V010 9999 FEW040 BKN/// 26/21 Q1003
RJCB 220100Z 02005KT 9999 FEW030 SCT060 BKN/// 25/21 Q1003
RJCB 220000Z 02004KT 350V060 9999 FEW040 BKN/// 25/21 Q1003
RJCB 212300Z VRB02KT 9999 FEW040 BKN/// 25/21 Q1003
RJCB 212240Z VRB02KT 9999 FEW040 BKN/// 25/21 Q1003 RMK 1CU040 A2962
RJCB 211100Z VRB01KT 9999 FEW040 BKN120 BKN/// 26/22 Q1004
RJCB 211000Z VRB02KT 9999 FEW040 SCT090 BKN130 27/21 Q1003
RJCB 210900Z 11003KT 080V140 9999 FEW040 BKN100 28/22 Q1003
RJCB 210800Z VRB02KT 9999 FEW040 SCT100 BKN/// 28/22 Q1003
RJCB 210700Z 36006KT 340V050 9999 FEW040 SCT150 29/22 Q1003
RJCB 210600Z 33004KT 300V010 9999 FEW040 SCT150 30/22 Q1003
RJCB 210500Z 14003KT 090V200 9999 FEW040 BKN140 29/23 Q1003
RJCB 210400Z 17004KT 120V200 9999 FEW040 SCT150 29/22 Q1004
RJCB 210300Z VRB02KT 9999 FEW020 SCT150 28/22 Q1005
RJCB 210200Z 03006KT 350V070 9999 FEW020 SCT150 BKN/// 27/22 Q1005
RJCB 210100Z 15003KT 120V190 9999 FEW040 SCT150 BKN/// 26/22 Q1005
RJCB 210000Z VRB02KT 9999 FEW040 BKN/// 26/21 Q1006
RJCB 202300Z VRB02KT 9999 FEW040 BKN/// 24/21 Q1006
RJCB 202240Z VRB02KT 9999 FEW040 BKN/// 23/21 Q1006 RMK 1CU040 A2973